This is the latest recevied weather packets stored in our database for station/object OK1FET-5. If no packets are shown the sender has not sent any weather packets the latest 10 day(s).
| Time | Temp. | Humidity | Pressure | Rain* | Wind** | Luminosity | Snow |
|---|---|---|---|---|---|---|---|
| 1788197644 | 21.11° C | 53% | 1016.2 hPa | - | - | - | - |
| 1788197049 | 21.11° C | 51% | 1016.1 hPa | - | - | - | - |
| 1788196453 | 21.67° C | 50% | 1016.1 hPa | - | - | - | - |
| 1788195857 | 22.78° C | 48% | 1016 hPa | - | - | - | - |
| 1788195261 | 23.33° C | 47% | 1015.9 hPa | - | - | - | - |
| 1788194666 | 24.44° C | 45% | 1016 hPa | - | - | - | - |
| 1788194070 | 25° C | 45% | 1016 hPa | - | - | - | - |
| 1788193474 | 25° C | 45% | 1016 hPa | - | - | - | - |
| 1788192282 | 25° C | 47% | 1016.1 hPa | - | - | - | - |
| 1788191687 | 25.56° C | 45% | 1016.1 hPa | - | - | - | - |
| 1788191091 | 26.67° C | 43% | 1016.1 hPa | - | - | - | - |
| 1788190495 | 27.22° C | 44% | 1016.1 hPa | - | - | - | - |
| 1788189900 | 27.22° C | 43% | 1016.2 hPa | - | - | - | - |
| 1788189304 | 27.22° C | 43% | 1016.3 hPa | - | - | - | - |
| 1788188708 | 27.22° C | 44% | 1016.4 hPa | - | - | - | - |
| 1788188112 | 27.78° C | 41% | 1016.4 hPa | - | - | - | - |
| 1788187517 | 27.22° C | 43% | 1016.5 hPa | - | - | - | - |
| 1788186921 | 26.11° C | 44% | 1016.6 hPa | - | - | - | - |
| 1788186325 | 27.78° C | 43% | 1016.6 hPa | - | - | - | - |
| 1788185729 | 28.33° C | 42% | 1016.6 hPa | - | - | - | - |
| 1788185133 | 27.78° C | 42% | 1016.6 hPa | - | - | - | - |
| 1788184538 | 27.78° C | 41% | 1016.6 hPa | - | - | - | - |
| 1788183942 | 27.78° C | 42% | 1016.5 hPa | - | - | - | - |
| 1788183346 | 27.78° C | 43% | 1016.5 hPa | - | - | - | - |
| 1788182750 | 26.11° C | 46% | 1016.6 hPa | - | - | - | - |
* Rain since midnight (hover to see other rain measurements)
** Current wind speed in m/s (hover to see current wind gust speed)